sensor_id;sensor_type;location;lat;lon;timestamp;pressure;altitude;pressure_sealevel;temperature
72278;BMP280;61204;49.980;8.358;2023-05-07T00:01:58;100601.13;;;15.69
72278;BMP280;61204;49.980;8.358;2023-05-07T00:04:24;100605.03;;;15.64
72278;BMP280;61204;49.980;8.358;2023-05-07T00:06:53;100601.66;;;15.65
72278;BMP280;61204;49.980;8.358;2023-05-07T00:09:18;100600.81;;;15.63
72278;BMP280;61204;49.980;8.358;2023-05-07T00:11:44;100610.97;;;15.58
72278;BMP280;61204;49.980;8.358;2023-05-07T00:14:09;100604.50;;;15.54
72278;BMP280;61204;49.980;8.358;2023-05-07T00:16:35;100607.78;;;15.50
72278;BMP280;61204;49.980;8.358;2023-05-07T00:19:00;100603.09;;;15.53
72278;BMP280;61204;49.980;8.358;2023-05-07T00:21:28;100607.09;;;15.50
72278;BMP280;61204;49.980;8.358;2023-05-07T00:23:55;100600.75;;;15.47
72278;BMP280;61204;49.980;8.358;2023-05-07T00:26:21;100595.81;;;15.45
72278;BMP280;61204;49.980;8.358;2023-05-07T00:28:47;100604.09;;;15.45
72278;BMP280;61204;49.980;8.358;2023-05-07T00:31:12;100597.88;;;15.45
72278;BMP280;61204;49.980;8.358;2023-05-07T00:33:38;100608.09;;;15.42
72278;BMP280;61204;49.980;8.358;2023-05-07T00:36:04;100594.19;;;15.40
72278;BMP280;61204;49.980;8.358;2023-05-07T00:38:29;100591.41;;;15.40
72278;BMP280;61204;49.980;8.358;2023-05-07T00:40:55;100590.00;;;15.39
72278;BMP280;61204;49.980;8.358;2023-05-07T00:43:20;100582.22;;;15.36
72278;BMP280;61204;49.980;8.358;2023-05-07T00:45:48;100580.69;;;15.33
72278;BMP280;61204;49.980;8.358;2023-05-07T00:48:15;100584.66;;;15.30
72278;BMP280;61204;49.980;8.358;2023-05-07T00:50:41;100582.53;;;15.28
72278;BMP280;61204;49.980;8.358;2023-05-07T00:53:07;100585.81;;;15.25
72278;BMP280;61204;49.980;8.358;2023-05-07T00:55:35;100582.94;;;15.23
72278;BMP280;61204;49.980;8.358;2023-05-07T00:58:01;100585.09;;;15.24
72278;BMP280;61204;49.980;8.358;2023-05-07T01:00:27;100585.69;;;15.23
72278;BMP280;61204;49.980;8.358;2023-05-07T01:02:53;100588.47;;;15.23
72278;BMP280;61204;49.980;8.358;2023-05-07T01:05:19;100582.22;;;15.22
72278;BMP280;61204;49.980;8.358;2023-05-07T01:07:48;100576.19;;;15.26
72278;BMP280;61204;49.980;8.358;2023-05-07T01:10:15;100566.47;;;15.25
72278;BMP280;61204;49.980;8.358;2023-05-07T01:12:42;100574.84;;;15.27
72278;BMP280;61204;49.980;8.358;2023-05-07T01:15:10;100580.19;;;15.23
72278;BMP280;61204;49.980;8.358;2023-05-07T01:17:37;100573.09;;;15.20
72278;BMP280;61204;49.980;8.358;2023-05-07T01:20:05;100573.00;;;15.18
72278;BMP280;61204;49.980;8.358;2023-05-07T01:22:36;100571.47;;;15.14
72278;BMP280;61204;49.980;8.358;2023-05-07T01:25:04;100564.63;;;15.15
72278;BMP280;61204;49.980;8.358;2023-05-07T01:27:32;100563.31;;;15.17
72278;BMP280;61204;49.980;8.358;2023-05-07T01:29:59;100563.38;;;15.19
72278;BMP280;61204;49.980;8.358;2023-05-07T01:32:27;100559.19;;;15.18
72278;BMP280;61204;49.980;8.358;2023-05-07T01:35:00;100557.13;;;15.18
72278;BMP280;61204;49.980;8.358;2023-05-07T01:37:30;100556.44;;;15.18
72278;BMP280;61204;49.980;8.358;2023-05-07T01:39:55;100556.22;;;15.13
72278;BMP280;61204;49.980;8.358;2023-05-07T01:42:22;100558.19;;;15.11
72278;BMP280;61204;49.980;8.358;2023-05-07T01:44:50;100558.06;;;15.09
72278;BMP280;61204;49.980;8.358;2023-05-07T01:47:16;100551.72;;;15.06
72278;BMP280;61204;49.980;8.358;2023-05-07T01:49:42;100553.16;;;15.07
72278;BMP280;61204;49.980;8.358;2023-05-07T01:52:09;100555.09;;;15.05
72278;BMP280;61204;49.980;8.358;2023-05-07T01:54:36;100555.81;;;15.05
72278;BMP280;61204;49.980;8.358;2023-05-07T01:57:02;100555.00;;;15.03
72278;BMP280;61204;49.980;8.358;2023-05-07T01:59:28;100556.31;;;15.02
72278;BMP280;61204;49.980;8.358;2023-05-07T02:01:55;100554.38;;;15.04
72278;BMP280;61204;49.980;8.358;2023-05-07T02:04:21;100557.13;;;15.04
72278;BMP280;61204;49.980;8.358;2023-05-07T02:06:46;100559.28;;;15.06
72278;BMP280;61204;49.980;8.358;2023-05-07T02:09:12;100562.75;;;15.06
72278;BMP280;61204;49.980;8.358;2023-05-07T02:11:39;100562.75;;;15.06
72278;BMP280;61204;49.980;8.358;2023-05-07T02:14:05;100562.97;;;15.10
72278;BMP280;61204;49.980;8.358;2023-05-07T02:16:31;100564.38;;;15.11
72278;BMP280;61204;49.980;8.358;2023-05-07T02:18:56;100563.69;;;15.11
72278;BMP280;61204;49.980;8.358;2023-05-07T02:21:24;100561.75;;;15.13
72278;BMP280;61204;49.980;8.358;2023-05-07T02:23:50;100564.63;;;15.15
72278;BMP280;61204;49.980;8.358;2023-05-07T02:26:15;100559.28;;;15.20
72278;BMP280;61204;49.980;8.358;2023-05-07T02:28:41;100562.88;;;15.22
72278;BMP280;61204;49.980;8.358;2023-05-07T02:31:08;100560.94;;;15.25
72278;BMP280;61204;49.980;8.358;2023-05-07T02:33:36;100569.31;;;15.27
72278;BMP280;61204;49.980;8.358;2023-05-07T02:36:08;100571.56;;;15.30
72278;BMP280;61204;49.980;8.358;2023-05-07T02:38:35;100569.50;;;15.31
72278;BMP280;61204;49.980;8.358;2023-05-07T02:41:01;100565.97;;;15.28
72278;BMP280;61204;49.980;8.358;2023-05-07T02:43:27;100560.63;;;15.32
72278;BMP280;61204;49.980;8.358;2023-05-07T02:46:05;100558.66;;;15.35
72278;BMP280;61204;49.980;8.358;2023-05-07T02:48:33;100555.41;;;15.38
72278;BMP280;61204;49.980;8.358;2023-05-07T02:50:59;100557.78;;;15.44
72278;BMP280;61204;49.980;8.358;2023-05-07T02:53:25;100557.66;;;15.42
72278;BMP280;61204;49.980;8.358;2023-05-07T02:55:55;100564.50;;;15.41
72278;BMP280;61204;49.980;8.358;2023-05-07T02:58:22;100550.69;;;15.41
72278;BMP280;61204;49.980;8.358;2023-05-07T03:00:50;100551.59;;;15.45
72278;BMP280;61204;49.980;8.358;2023-05-07T03:03:17;100557.78;;;15.44
72278;BMP280;61204;49.980;8.358;2023-05-07T03:05:42;100554.47;;;15.48
72278;BMP280;61204;49.980;8.358;2023-05-07T03:08:08;100556.63;;;15.49
72278;BMP280;61204;49.980;8.358;2023-05-07T03:10:35;100559.06;;;15.57
72278;BMP280;61204;49.980;8.358;2023-05-07T03:13:01;100559.00;;;15.55
72278;BMP280;61204;49.980;8.358;2023-05-07T03:15:27;100561.94;;;15.59
72278;BMP280;61204;49.980;8.358;2023-05-07T03:17:55;100557.72;;;15.58
72278;BMP280;61204;49.980;8.358;2023-05-07T03:20:21;100542.06;;;15.62
72278;BMP280;61204;49.980;8.358;2023-05-07T03:22:46;100548.53;;;15.67
72278;BMP280;61204;49.980;8.358;2023-05-07T03:25:12;100545.66;;;15.65
72278;BMP280;61204;49.980;8.358;2023-05-07T03:27:37;100543.00;;;15.67
72278;BMP280;61204;49.980;8.358;2023-05-07T03:30:03;100550.47;;;15.64
72278;BMP280;61204;49.980;8.358;2023-05-07T03:32:32;100536.75;;;15.66
72278;BMP280;61204;49.980;8.358;2023-05-07T03:34:58;100529.91;;;15.67
72278;BMP280;61204;49.980;8.358;2023-05-07T03:37:23;100536.94;;;15.70
72278;BMP280;61204;49.980;8.358;2023-05-07T03:39:49;100533.03;;;15.75
72278;BMP280;61204;49.980;8.358;2023-05-07T03:42:14;100532.31;;;15.75
72278;BMP280;61204;49.980;8.358;2023-05-07T03:44:40;100531.41;;;15.70
72278;BMP280;61204;49.980;8.358;2023-05-07T03:47:06;100530.81;;;15.72
72278;BMP280;61204;49.980;8.358;2023-05-07T03:49:35;100536.22;;;15.70
72278;BMP280;61204;49.980;8.358;2023-05-07T03:52:03;100530.00;;;15.69
72278;BMP280;61204;49.980;8.358;2023-05-07T03:54:29;100536.94;;;15.70
72278;BMP280;61204;49.980;8.358;2023-05-07T03:56:55;100534.91;;;15.71
72278;BMP280;61204;49.980;8.358;2023-05-07T03:59:21;100546.56;;;15.69
72278;BMP280;61204;49.980;8.358;2023-05-07T04:01:47;100546.97;;;15.64
72278;BMP280;61204;49.980;8.358;2023-05-07T04:04:13;100560.31;;;15.67
72278;BMP280;61204;49.980;8.358;2023-05-07T04:06:42;100547.16;;;15.68
72278;BMP280;61204;49.980;8.358;2023-05-07T04:09:07;100558.94;;;15.68
72278;BMP280;61204;49.980;8.358;2023-05-07T04:11:33;100563.16;;;15.69
72278;BMP280;61204;49.980;8.358;2023-05-07T04:13:58;100562.97;;;15.65
72278;BMP280;61204;49.980;8.358;2023-05-07T04:16:24;100560.09;;;15.63
72278;BMP280;61204;49.980;8.358;2023-05-07T04:18:49;100569.94;;;15.66
72278;BMP280;61204;49.980;8.358;2023-05-07T04:21:15;100569.41;;;15.70
72278;BMP280;61204;49.980;8.358;2023-05-07T04:23:43;100576.25;;;15.69
72278;BMP280;61204;49.980;8.358;2023-05-07T04:26:08;100578.94;;;15.67
72278;BMP280;61204;49.980;8.358;2023-05-07T04:28:34;100582.41;;;15.67
72278;BMP280;61204;49.980;8.358;2023-05-07T04:31:02;100581.28;;;15.72
72278;BMP280;61204;49.980;8.358;2023-05-07T04:33:28;100574.94;;;15.70
72278;BMP280;61204;49.980;8.358;2023-05-07T04:35:53;100570.13;;;15.70
72278;BMP280;61204;49.980;8.358;2023-05-07T04:38:19;100580.47;;;15.70
72278;BMP280;61204;49.980;8.358;2023-05-07T04:40:44;100580.16;;;15.78
72278;BMP280;61204;49.980;8.358;2023-05-07T04:43:11;100575.84;;;15.74
72278;BMP280;61204;49.980;8.358;2023-05-07T04:45:39;100579.72;;;15.83
72278;BMP280;61204;49.980;8.358;2023-05-07T04:48:06;100578.47;;;15.86
72278;BMP280;61204;49.980;8.358;2023-05-07T04:50:32;100586.06;;;15.86
72278;BMP280;61204;49.980;8.358;2023-05-07T04:52:58;100586.16;;;15.88
72278;BMP280;61204;49.980;8.358;2023-05-07T04:55:23;100598.00;;;15.90
72278;BMP280;61204;49.980;8.358;2023-05-07T04:57:49;100593.41;;;15.95
72278;BMP280;61204;49.980;8.358;2023-05-07T05:00:15;100604.75;;;16.01
72278;BMP280;61204;49.980;8.358;2023-05-07T05:02:44;100595.25;;;16.04
72278;BMP280;61204;49.980;8.358;2023-05-07T05:05:10;100600.75;;;16.04
72278;BMP280;61204;49.980;8.358;2023-05-07T05:07:36;100598.06;;;16.06
72278;BMP280;61204;49.980;8.358;2023-05-07T05:10:04;100594.09;;;16.09
72278;BMP280;61204;49.980;8.358;2023-05-07T05:12:31;100601.97;;;16.15
72278;BMP280;61204;49.980;8.358;2023-05-07T05:14:56;100605.72;;;16.21
72278;BMP280;61204;49.980;8.358;2023-05-07T05:17:22;100602.44;;;16.25
72278;BMP280;61204;49.980;8.358;2023-05-07T05:19:47;100612.97;;;16.28
72278;BMP280;61204;49.980;8.358;2023-05-07T05:22:15;100613.16;;;16.32
72278;BMP280;61204;49.980;8.358;2023-05-07T05:24:46;100614.81;;;16.38
72278;BMP280;61204;49.980;8.358;2023-05-07T05:27:11;100614.09;;;16.37
72278;BMP280;61204;49.980;8.358;2023-05-07T05:29:36;100615.53;;;16.38
72278;BMP280;61204;49.980;8.358;2023-05-07T05:32:02;100623.16;;;16.40
72278;BMP280;61204;49.980;8.358;2023-05-07T05:34:27;100616.91;;;16.39
72278;BMP280;61204;49.980;8.358;2023-05-07T05:36:55;100621.22;;;16.42
72278;BMP280;61204;49.980;8.358;2023-05-07T05:39:21;100629.00;;;16.46
72278;BMP280;61204;49.980;8.358;2023-05-07T05:41:48;100627.84;;;16.51
72278;BMP280;61204;49.980;8.358;2023-05-07T05:44:13;100622.47;;;16.55
72278;BMP280;61204;49.980;8.358;2023-05-07T05:46:38;100628.91;;;16.59
72278;BMP280;61204;49.980;8.358;2023-05-07T05:49:04;100634.13;;;16.67
72278;BMP280;61204;49.980;8.358;2023-05-07T05:51:29;100635.75;;;16.72
72278;BMP280;61204;49.980;8.358;2023-05-07T05:53:57;100630.22;;;16.88
72278;BMP280;61204;49.980;8.358;2023-05-07T05:56:22;100634.00;;;17.10
72278;BMP280;61204;49.980;8.358;2023-05-07T05:58:48;100640.91;;;17.43
72278;BMP280;61204;49.980;8.358;2023-05-07T06:01:16;100632.31;;;17.52
72278;BMP280;61204;49.980;8.358;2023-05-07T06:03:43;100634.16;;;17.64
72278;BMP280;61204;49.980;8.358;2023-05-07T06:06:09;100627.34;;;17.67
72278;BMP280;61204;49.980;8.358;2023-05-07T06:08:34;100627.31;;;18.00
72278;BMP280;61204;49.980;8.358;2023-05-07T06:11:00;100624.78;;;18.24
72278;BMP280;61204;49.980;8.358;2023-05-07T06:13:27;100622.25;;;18.30
72278;BMP280;61204;49.980;8.358;2023-05-07T06:15:52;100632.06;;;18.16
72278;BMP280;61204;49.980;8.358;2023-05-07T06:18:18;100621.47;;;18.28
72278;BMP280;61204;49.980;8.358;2023-05-07T06:20:43;100619.41;;;18.28
72278;BMP280;61204;49.980;8.358;2023-05-07T06:23:09;100626.13;;;18.41
72278;BMP280;61204;49.980;8.358;2023-05-07T06:25:34;100635.03;;;18.75
72278;BMP280;61204;49.980;8.358;2023-05-07T06:27:59;100627.59;;;18.82
72278;BMP280;61204;49.980;8.358;2023-05-07T06:30:25;100629.47;;;19.15
72278;BMP280;61204;49.980;8.358;2023-05-07T06:32:51;100633.94;;;19.44
72278;BMP280;61204;49.980;8.358;2023-05-07T06:35:19;100637.47;;;19.46
72278;BMP280;61204;49.980;8.358;2023-05-07T06:37:45;100636.88;;;19.08
72278;BMP280;61204;49.980;8.358;2023-05-07T06:40:10;100640.16;;;19.22
72278;BMP280;61204;49.980;8.358;2023-05-07T06:42:36;100630.94;;;18.78
72278;BMP280;61204;49.980;8.358;2023-05-07T06:45:02;100634.09;;;19.08
72278;BMP280;61204;49.980;8.358;2023-05-07T06:47:29;100628.03;;;18.74
72278;BMP280;61204;49.980;8.358;2023-05-07T06:49:55;100642.16;;;18.62
72278;BMP280;61204;49.980;8.358;2023-05-07T06:52:22;100639.19;;;18.56
72278;BMP280;61204;49.980;8.358;2023-05-07T06:54:51;100647.75;;;18.82
72278;BMP280;61204;49.980;8.358;2023-05-07T06:57:16;100654.66;;;18.81
72278;BMP280;61204;49.980;8.358;2023-05-07T06:59:42;100651.75;;;18.97
72278;BMP280;61204;49.980;8.358;2023-05-07T07:02:07;100658.91;;;19.02
72278;BMP280;61204;49.980;8.358;2023-05-07T07:04:33;100658.69;;;19.16
72278;BMP280;61204;49.980;8.358;2023-05-07T07:06:58;100656.91;;;19.04
72278;BMP280;61204;49.980;8.358;2023-05-07T07:09:24;100657.81;;;18.91
72278;BMP280;61204;49.980;8.358;2023-05-07T07:11:52;100666.97;;;18.94
72278;BMP280;61204;49.980;8.358;2023-05-07T07:14:17;100660.88;;;18.99
72278;BMP280;61204;49.980;8.358;2023-05-07T07:16:43;100663.94;;;18.88
72278;BMP280;61204;49.980;8.358;2023-05-07T07:19:11;100666.44;;;18.80
72278;BMP280;61204;49.980;8.358;2023-05-07T07:21:37;100665.22;;;18.47
72278;BMP280;61204;49.980;8.358;2023-05-07T07:24:02;100664.50;;;18.29
72278;BMP280;61204;49.980;8.358;2023-05-07T07:26:28;100659.34;;;18.57
72278;BMP280;61204;49.980;8.358;2023-05-07T07:28:53;100656.56;;;18.57
72278;BMP280;61204;49.980;8.358;2023-05-07T07:31:19;100671.44;;;18.83
72278;BMP280;61204;49.980;8.358;2023-05-07T07:33:44;100674.38;;;19.07
72278;BMP280;61204;49.980;8.358;2023-05-07T07:36:10;100677.16;;;19.07
72278;BMP280;61204;49.980;8.358;2023-05-07T07:38:35;100674.31;;;18.67
72278;BMP280;61204;49.980;8.358;2023-05-07T07:41:01;100674.69;;;18.78
72278;BMP280;61204;49.980;8.358;2023-05-07T07:43:27;100677.31;;;18.73
72278;BMP280;61204;49.980;8.358;2023-05-07T07:45:52;100680.75;;;18.36
72278;BMP280;61204;49.980;8.358;2023-05-07T07:48:18;100676.31;;;18.47
72278;BMP280;61204;49.980;8.358;2023-05-07T07:50:43;100672.53;;;18.56
72278;BMP280;61204;49.980;8.358;2023-05-07T07:53:11;100673.16;;;18.37
72278;BMP280;61204;49.980;8.358;2023-05-07T07:55:40;100675.19;;;18.54
72278;BMP280;61204;49.980;8.358;2023-05-07T07:58:05;100679.94;;;18.69
72278;BMP280;61204;49.980;8.358;2023-05-07T08:00:31;100668.91;;;18.71
72278;BMP280;61204;49.980;8.358;2023-05-07T08:02:58;100664.38;;;18.62
72278;BMP280;61204;49.980;8.358;2023-05-07T08:05:28;100669.59;;;18.34
72278;BMP280;61204;49.980;8.358;2023-05-07T08:07:53;100673.47;;;18.45
72278;BMP280;61204;49.980;8.358;2023-05-07T08:10:24;100672.53;;;18.56
72278;BMP280;61204;49.980;8.358;2023-05-07T08:12:49;100669.00;;;18.56
72278;BMP280;61204;49.980;8.358;2023-05-07T08:15:16;100685.09;;;18.59
72278;BMP280;61204;49.980;8.358;2023-05-07T08:17:42;100672.88;;;18.66
72278;BMP280;61204;49.980;8.358;2023-05-07T08:20:08;100675.72;;;18.86
72278;BMP280;61204;49.980;8.358;2023-05-07T08:22:35;100673.81;;;19.30
72278;BMP280;61204;49.980;8.358;2023-05-07T08:25:03;100677.81;;;19.25
72278;BMP280;61204;49.980;8.358;2023-05-07T08:27:32;100672.38;;;19.29
72278;BMP280;61204;49.980;8.358;2023-05-07T08:29:59;100674.22;;;19.23
72278;BMP280;61204;49.980;8.358;2023-05-07T08:32:25;100673.00;;;19.48
72278;BMP280;61204;49.980;8.358;2023-05-07T08:34:52;100664.38;;;19.81
72278;BMP280;61204;49.980;8.358;2023-05-07T08:37:18;100668.31;;;20.18
72278;BMP280;61204;49.980;8.358;2023-05-07T08:39:43;100669.72;;;19.97
72278;BMP280;61204;49.980;8.358;2023-05-07T08:42:09;100682.16;;;20.16
72278;BMP280;61204;49.980;8.358;2023-05-07T08:44:37;100683.34;;;20.33
72278;BMP280;61204;49.980;8.358;2023-05-07T08:47:06;100681.72;;;20.47
72278;BMP280;61204;49.980;8.358;2023-05-07T08:49:32;100685.25;;;20.74
72278;BMP280;61204;49.980;8.358;2023-05-07T08:51:59;100688.66;;;20.94
72278;BMP280;61204;49.980;8.358;2023-05-07T08:54:25;100692.94;;;20.99
72278;BMP280;61204;49.980;8.358;2023-05-07T08:56:52;100684.09;;;20.81
72278;BMP280;61204;49.980;8.358;2023-05-07T08:59:18;100684.78;;;21.07
72278;BMP280;61204;49.980;8.358;2023-05-07T09:01:43;100691.19;;;21.38
72278;BMP280;61204;49.980;8.358;2023-05-07T09:04:09;100681.81;;;21.53
72278;BMP280;61204;49.980;8.358;2023-05-07T09:06:35;100690.97;;;21.85
72278;BMP280;61204;49.980;8.358;2023-05-07T09:09:01;100690.56;;;21.41
72278;BMP280;61204;49.980;8.358;2023-05-07T09:11:30;100695.09;;;21.82
72278;BMP280;61204;49.980;8.358;2023-05-07T09:13:58;100691.75;;;21.32
72278;BMP280;61204;49.980;8.358;2023-05-07T09:16:26;100691.44;;;21.48
72278;BMP280;61204;49.980;8.358;2023-05-07T09:18:57;100692.03;;;21.72
72278;BMP280;61204;49.980;8.358;2023-05-07T09:21:25;100692.13;;;21.76
72278;BMP280;61204;49.980;8.358;2023-05-07T09:23:53;100687.47;;;22.15
72278;BMP280;61204;49.980;8.358;2023-05-07T09:26:23;100691.66;;;22.16
72278;BMP280;61204;49.980;8.358;2023-05-07T09:28:53;100693.34;;;22.61
72278;BMP280;61204;49.980;8.358;2023-05-07T09:31:21;100691.16;;;22.92
72278;BMP280;61204;49.980;8.358;2023-05-07T09:33:48;100693.72;;;22.81
72278;BMP280;61204;49.980;8.358;2023-05-07T09:36:16;100688.28;;;22.88
72278;BMP280;61204;49.980;8.358;2023-05-07T09:38:41;100685.16;;;23.47
72278;BMP280;61204;49.980;8.358;2023-05-07T09:41:08;100678.94;;;23.99
72278;BMP280;61204;49.980;8.358;2023-05-07T09:43:37;100682.72;;;23.30
72278;BMP280;61204;49.980;8.358;2023-05-07T09:48:39;100689.91;;;23.39
72278;BMP280;61204;49.980;8.358;2023-05-07T09:51:15;100682.00;;;22.53
72278;BMP280;61204;49.980;8.358;2023-05-07T09:53:54;100681.56;;;23.03
72278;BMP280;61204;49.980;8.358;2023-05-07T09:56:29;100684.66;;;23.63
72278;BMP280;61204;49.980;8.358;2023-05-07T09:58:56;100687.66;;;22.93
72278;BMP280;61204;49.980;8.358;2023-05-07T10:01:25;100687.09;;;23.41
72278;BMP280;61204;49.980;8.358;2023-05-07T10:03:53;100670.91;;;24.28
72278;BMP280;61204;49.980;8.358;2023-05-07T10:06:20;100677.59;;;24.63
72278;BMP280;61204;49.980;8.358;2023-05-07T10:08:48;100668.91;;;25.03
72278;BMP280;61204;49.980;8.358;2023-05-07T10:11:15;100670.66;;;24.68
72278;BMP280;61204;49.980;8.358;2023-05-07T10:13:44;100668.94;;;24.38
72278;BMP280;61204;49.980;8.358;2023-05-07T10:16:11;100662.53;;;23.79
72278;BMP280;61204;49.980;8.358;2023-05-07T10:18:40;100665.66;;;24.02
72278;BMP280;61204;49.980;8.358;2023-05-07T10:21:18;100656.91;;;24.96
72278;BMP280;61204;49.980;8.358;2023-05-07T10:23:51;100661.81;;;24.96
72278;BMP280;61204;49.980;8.358;2023-05-07T10:26:27;100656.63;;;25.48
72278;BMP280;61204;49.980;8.358;2023-05-07T10:29:05;100657.06;;;26.34
72278;BMP280;61204;49.980;8.358;2023-05-07T10:34:21;100659.06;;;25.99
72278;BMP280;61204;49.980;8.358;2023-05-07T10:36:53;100659.00;;;25.89
72278;BMP280;61204;49.980;8.358;2023-05-07T10:39:21;100661.97;;;26.27
72278;BMP280;61204;49.980;8.358;2023-05-07T10:41:48;100657.13;;;26.54
72278;BMP280;61204;49.980;8.358;2023-05-07T10:44:34;100669.84;;;27.20
72278;BMP280;61204;49.980;8.358;2023-05-07T10:47:06;100660.69;;;26.69
72278;BMP280;61204;49.980;8.358;2023-05-07T10:52:31;100667.66;;;26.49
72278;BMP280;61204;49.980;8.358;2023-05-07T10:57:42;100656.50;;;27.04
72278;BMP280;61204;49.980;8.358;2023-05-07T11:05:33;100650.16;;;26.94
72278;BMP280;61204;49.980;8.358;2023-05-07T11:08:02;100656.16;;;25.85
72278;BMP280;61204;49.980;8.358;2023-05-07T11:13:16;100645.94;;;26.89
72278;BMP280;61204;49.980;8.358;2023-05-07T11:15:47;100642.13;;;25.87
72278;BMP280;61204;49.980;8.358;2023-05-07T11:18:17;100636.59;;;25.99
72278;BMP280;61204;49.980;8.358;2023-05-07T11:28:27;100644.50;;;26.71
72278;BMP280;61204;49.980;8.358;2023-05-07T11:30:53;100649.41;;;27.50
72278;BMP280;61204;49.980;8.358;2023-05-07T11:33:19;100639.38;;;27.98
72278;BMP280;61204;49.980;8.358;2023-05-07T11:35:45;100631.69;;;27.78
72278;BMP280;61204;49.980;8.358;2023-05-07T11:38:11;100631.09;;;27.55
72278;BMP280;61204;49.980;8.358;2023-05-07T11:40:48;100633.50;;;28.40
72278;BMP280;61204;49.980;8.358;2023-05-07T11:43:15;100624.97;;;29.32
72278;BMP280;61204;49.980;8.358;2023-05-07T11:45:41;100623.69;;;29.19
72278;BMP280;61204;49.980;8.358;2023-05-07T11:48:06;100612.34;;;28.41
72278;BMP280;61204;49.980;8.358;2023-05-07T11:50:32;100608.00;;;28.61
72278;BMP280;61204;49.980;8.358;2023-05-07T11:52:57;100617.72;;;28.76
72278;BMP280;61204;49.980;8.358;2023-05-07T11:55:25;100619.13;;;27.54
72278;BMP280;61204;49.980;8.358;2023-05-07T11:57:52;100614.91;;;28.76
72278;BMP280;61204;49.980;8.358;2023-05-07T12:00:18;100613.56;;;28.69
72278;BMP280;61204;49.980;8.358;2023-05-07T12:02:45;100620.53;;;27.56
72278;BMP280;61204;49.980;8.358;2023-05-07T12:05:10;100616.00;;;28.21
72278;BMP280;61204;49.980;8.358;2023-05-07T12:07:37;100608.81;;;28.45
72278;BMP280;61204;49.980;8.358;2023-05-07T12:10:05;100603.47;;;28.96
72278;BMP280;61204;49.980;8.358;2023-05-07T12:12:37;100602.69;;;29.02
72278;BMP280;61204;49.980;8.358;2023-05-07T12:15:04;100611.41;;;28.75
72278;BMP280;61204;49.980;8.358;2023-05-07T12:17:30;100599.59;;;28.50
72278;BMP280;61204;49.980;8.358;2023-05-07T12:19:56;100613.88;;;28.22
72278;BMP280;61204;49.980;8.358;2023-05-07T12:22:22;100610.66;;;27.59
72278;BMP280;61204;49.980;8.358;2023-05-07T12:24:48;100609.94;;;27.62
72278;BMP280;61204;49.980;8.358;2023-05-07T12:27:23;100607.03;;;27.84
72278;BMP280;61204;49.980;8.358;2023-05-07T12:29:49;100603.69;;;27.21
72278;BMP280;61204;49.980;8.358;2023-05-07T12:32:16;100605.69;;;27.63
72278;BMP280;61204;49.980;8.358;2023-05-07T12:34:44;100605.72;;;27.59
72278;BMP280;61204;49.980;8.358;2023-05-07T12:37:11;100598.00;;;27.58
72278;BMP280;61204;49.980;8.358;2023-05-07T12:39:49;100604.13;;;28.01
72278;BMP280;61204;49.980;8.358;2023-05-07T12:42:32;100593.22;;;28.56
72278;BMP280;61204;49.980;8.358;2023-05-07T12:45:11;100600.19;;;28.61
72278;BMP280;61204;49.980;8.358;2023-05-07T12:47:44;100598.78;;;27.24
72278;BMP280;61204;49.980;8.358;2023-05-07T12:50:10;100600.91;;;27.11
72278;BMP280;61204;49.980;8.358;2023-05-07T12:52:38;100607.94;;;27.16
72278;BMP280;61204;49.980;8.358;2023-05-07T12:55:07;100607.22;;;27.32
72278;BMP280;61204;49.980;8.358;2023-05-07T12:57:37;100606.94;;;28.03
72278;BMP280;61204;49.980;8.358;2023-05-07T13:00:05;100594.16;;;28.24
72278;BMP280;61204;49.980;8.358;2023-05-07T13:02:41;100596.78;;;28.54
72278;BMP280;61204;49.980;8.358;2023-05-07T13:05:11;100596.28;;;28.21
72278;BMP280;61204;49.980;8.358;2023-05-07T13:07:37;100585.13;;;28.91
72278;BMP280;61204;49.980;8.358;2023-05-07T13:10:03;100579.78;;;28.58
72278;BMP280;61204;49.980;8.358;2023-05-07T13:12:29;100593.69;;;27.75
72278;BMP280;61204;49.980;8.358;2023-05-07T13:14:55;100586.59;;;27.86
72278;BMP280;61204;49.980;8.358;2023-05-07T13:17:20;100593.78;;;27.48
72278;BMP280;61204;49.980;8.358;2023-05-07T13:19:46;100567.31;;;28.31
72278;BMP280;61204;49.980;8.358;2023-05-07T13:22:11;100581.78;;;27.56
72278;BMP280;61204;49.980;8.358;2023-05-07T13:24:39;100588.16;;;27.48
72278;BMP280;61204;49.980;8.358;2023-05-07T13:27:06;100576.31;;;27.01
72278;BMP280;61204;49.980;8.358;2023-05-07T13:29:32;100578.88;;;27.82
72278;BMP280;61204;49.980;8.358;2023-05-07T13:31:57;100571.19;;;27.67
72278;BMP280;61204;49.980;8.358;2023-05-07T13:34:23;100571.91;;;28.73
72278;BMP280;61204;49.980;8.358;2023-05-07T13:36:48;100562.16;;;28.62
72278;BMP280;61204;49.980;8.358;2023-05-07T13:39:14;100568.22;;;27.97
72278;BMP280;61204;49.980;8.358;2023-05-07T13:41:39;100563.56;;;27.33
72278;BMP280;61204;49.980;8.358;2023-05-07T13:44:04;100576.81;;;27.73
72278;BMP280;61204;49.980;8.358;2023-05-07T13:46:30;100565.25;;;28.21
72278;BMP280;61204;49.980;8.358;2023-05-07T13:48:56;100554.78;;;28.06
72278;BMP280;61204;49.980;8.358;2023-05-07T13:51:21;100544.19;;;28.10
72278;BMP280;61204;49.980;8.358;2023-05-07T13:53:47;100553.28;;;29.03
72278;BMP280;61204;49.980;8.358;2023-05-07T13:56:13;100545.44;;;29.11
72278;BMP280;61204;49.980;8.358;2023-05-07T13:58:40;100541.66;;;28.62
72278;BMP280;61204;49.980;8.358;2023-05-07T14:01:06;100542.25;;;29.42
72278;BMP280;61204;49.980;8.358;2023-05-07T14:03:31;100541.38;;;30.05
72278;BMP280;61204;49.980;8.358;2023-05-07T14:05:58;100537.59;;;30.20
72278;BMP280;61204;49.980;8.358;2023-05-07T14:08:26;100541.06;;;29.22
72278;BMP280;61204;49.980;8.358;2023-05-07T14:10:52;100544.19;;;28.96
72278;BMP280;61204;49.980;8.358;2023-05-07T14:13:18;100540.47;;;28.38
72278;BMP280;61204;49.980;8.358;2023-05-07T14:15:43;100543.69;;;27.75
72278;BMP280;61204;49.980;8.358;2023-05-07T14:18:13;100551.53;;;27.61
72278;BMP280;61204;49.980;8.358;2023-05-07T14:20:40;100544.47;;;27.62
72278;BMP280;61204;49.980;8.358;2023-05-07T14:23:05;100541.00;;;27.41